createdAt,value
2022-12-08T00:02:21.044Z,13.20
2022-12-08T00:05:08.265Z,11.90
2022-12-08T00:07:57.978Z,13.20
2022-12-08T00:10:48.428Z,9.80
2022-12-08T00:13:15.803Z,9.60
2022-12-08T00:15:44.189Z,9.40
2022-12-08T00:18:13.175Z,6.00
2022-12-08T00:20:41.449Z,6.60
2022-12-08T00:23:09.618Z,7.50
2022-12-08T00:25:37.797Z,9.50
2022-12-08T00:28:05.962Z,7.10
2022-12-08T00:30:34.146Z,8.60
2022-12-08T00:33:02.211Z,7.50
2022-12-08T00:35:30.284Z,6.30
2022-12-08T00:38:01.022Z,7.40
2022-12-08T00:40:29.703Z,6.20
2022-12-08T00:42:57.878Z,6.70
2022-12-08T00:45:26.146Z,6.80
2022-12-08T00:47:54.325Z,7.50
2022-12-08T00:50:22.601Z,7.30
2022-12-08T00:52:50.664Z,6.40
2022-12-08T00:55:19.348Z,8.30
2022-12-08T00:57:47.542Z,10.80
2022-12-08T01:00:16.326Z,8.60
2022-12-08T01:02:44.488Z,8.30
2022-12-08T01:05:12.633Z,8.60
2022-12-08T01:07:41.017Z,9.90
2022-12-08T01:10:09.759Z,10.50
2022-12-08T01:12:38.011Z,8.80
2022-12-08T01:15:06.798Z,10.30
2022-12-08T01:17:36.714Z,10.00
2022-12-08T01:20:07.736Z,9.70
2022-12-08T01:22:39.108Z,10.50
2022-12-08T01:25:08.007Z,11.10
2022-12-08T01:27:36.167Z,8.70
2022-12-08T01:30:06.659Z,10.50
2022-12-08T01:32:35.180Z,10.00
2022-12-08T01:35:03.564Z,11.30
2022-12-08T01:37:31.563Z,10.60
2022-12-08T01:39:59.691Z,6.80
2022-12-08T01:42:27.875Z,9.80
2022-12-08T01:45:04.010Z,4.30
2022-12-08T01:47:37.720Z,10.50
2022-12-08T01:50:08.708Z,9.60
2022-12-08T01:52:41.819Z,11.70
2022-12-08T01:55:24.041Z,11.40
2022-12-08T01:57:56.561Z,10.40
2022-12-08T02:00:25.009Z,9.40
2022-12-08T02:03:02.759Z,9.60
2022-12-08T02:05:38.284Z,8.60
2022-12-08T02:08:09.645Z,9.90
2022-12-08T02:10:41.788Z,10.00
2022-12-08T02:13:15.092Z,9.20
2022-12-08T02:16:10.674Z,9.30
2022-12-08T02:19:22.148Z,9.10
2022-12-08T02:21:48.319Z,8.40
2022-12-08T02:24:38.403Z,9.40
2022-12-08T02:27:21.349Z,10.00
2022-12-08T02:30:04.991Z,8.90
2022-12-08T02:32:59.210Z,9.40
2022-12-08T02:35:51.087Z,10.60
2022-12-08T02:38:25.389Z,11.30
2022-12-08T02:41:23.982Z,9.20
2022-12-08T02:44:05.459Z,10.20
2022-12-08T02:46:40.103Z,9.20
2022-12-08T02:49:08.367Z,10.30
2022-12-08T02:51:36.556Z,11.60
2022-12-08T02:54:05.028Z,14.10
2022-12-08T02:57:14.696Z,5.30
2022-12-08T03:00:09.912Z,9.80
2022-12-08T03:02:50.157Z,10.60
2022-12-08T03:05:23.830Z,11.50
2022-12-08T03:08:03.757Z,10.20
2022-12-08T03:10:46.709Z,9.30
2022-12-08T03:13:19.917Z,11.50
2022-12-08T03:15:51.799Z,7.60
2022-12-08T03:18:24.343Z,11.00
2022-12-08T03:20:52.611Z,7.60
2022-12-08T03:23:24.636Z,9.50
2022-12-08T03:26:08.834Z,11.70
2022-12-08T03:28:38.034Z,9.90
2022-12-08T03:31:10.169Z,11.70
2022-12-08T03:33:41.919Z,12.40
2022-12-08T03:36:12.455Z,11.20
2022-12-08T03:38:43.625Z,9.60
2022-12-08T03:41:18.455Z,9.10
2022-12-08T03:43:52.372Z,9.70
2022-12-08T03:48:50.759Z,9.30
2022-12-08T03:51:19.609Z,10.70
2022-12-08T03:53:48.857Z,9.60
2022-12-08T03:56:30.853Z,9.10
2022-12-08T03:58:59.330Z,11.70
2022-12-08T04:01:27.784Z,11.70
2022-12-08T04:03:56.297Z,6.60
2022-12-08T04:06:24.971Z,12.00
2022-12-08T04:08:53.759Z,8.40
2022-12-08T04:11:22.214Z,9.20
2022-12-08T04:13:50.514Z,13.60
2022-12-08T04:16:25.067Z,10.80
2022-12-08T04:18:53.941Z,8.50
2022-12-08T04:21:22.528Z,10.30
2022-12-08T04:23:52.889Z,9.90
2022-12-08T04:26:23.280Z,11.40
2022-12-08T04:28:51.547Z,11.70
2022-12-08T04:31:20.019Z,10.00
2022-12-08T04:33:49.078Z,9.90
2022-12-08T04:36:17.478Z,9.20
2022-12-08T04:38:45.989Z,10.40
2022-12-08T04:41:14.264Z,11.70
2022-12-08T04:43:44.579Z,13.00
2022-12-08T04:46:13.230Z,15.90
2022-12-08T04:48:42.158Z,17.90
2022-12-08T04:51:19.338Z,20.60
2022-12-08T04:53:48.040Z,21.90
2022-12-08T04:56:18.766Z,23.50
2022-12-08T04:58:47.604Z,20.00
2022-12-08T05:01:16.542Z,14.30
2022-12-08T05:03:44.815Z,13.30
2022-12-08T05:06:14.555Z,11.70
2022-12-08T05:08:43.840Z,12.90
2022-12-08T05:11:13.446Z,9.50
2022-12-08T05:13:41.907Z,13.20
2022-12-08T05:16:13.348Z,11.30
2022-12-08T05:18:42.505Z,15.30
2022-12-08T05:21:11.856Z,16.00
2022-12-08T05:23:40.152Z,17.70
2022-12-08T05:26:08.432Z,20.50
2022-12-08T05:28:41.716Z,22.10
2022-12-08T05:31:15.701Z,22.10
2022-12-08T05:33:45.558Z,26.50
2022-12-08T05:36:15.729Z,21.90
2022-12-08T05:38:44.965Z,22.80
2022-12-08T05:41:20.111Z,28.10
2022-12-08T05:43:48.412Z,39.10
2022-12-08T05:46:17.719Z,34.00
2022-12-08T05:48:46.265Z,30.70
2022-12-08T05:51:20.475Z,24.50
2022-12-08T05:53:50.881Z,20.90
2022-12-08T05:56:20.712Z,17.80
2022-12-08T05:58:49.908Z,12.30
2022-12-08T06:01:30.562Z,13.10
2022-12-08T06:04:01.427Z,10.40
2022-12-08T06:06:30.526Z,11.30
2022-12-08T06:08:59.002Z,10.20
2022-12-08T06:11:29.928Z,8.80
2022-12-08T06:13:59.153Z,7.70
2022-12-08T06:16:29.650Z,9.10
2022-12-08T06:18:59.710Z,9.50
2022-12-08T06:21:28.370Z,10.50
2022-12-08T06:23:56.573Z,10.70
2022-12-08T06:26:25.218Z,9.70
2022-12-08T06:28:53.803Z,10.40
2022-12-08T06:31:27.030Z,10.50
2022-12-08T06:33:55.653Z,10.20
2022-12-08T06:36:28.243Z,9.40
2022-12-08T06:38:57.054Z,12.10
2022-12-08T06:41:26.964Z,11.40
2022-12-08T06:43:59.127Z,8.90
2022-12-08T06:46:27.499Z,11.00
2022-12-08T06:48:55.986Z,6.70
2022-12-08T06:51:24.552Z,10.20
2022-12-08T06:53:52.957Z,10.70
2022-12-08T06:56:24.641Z,10.30
2022-12-08T06:58:53.344Z,9.40
2022-12-08T07:01:22.725Z,10.10
2022-12-08T07:03:51.407Z,9.90
2022-12-08T07:06:23.552Z,9.90
2022-12-08T07:08:53.385Z,10.70
2022-12-08T07:11:23.092Z,9.10
2022-12-08T07:13:52.002Z,11.90
2022-12-08T07:16:21.963Z,11.20
2022-12-08T07:18:51.825Z,11.40
2022-12-08T07:21:20.595Z,12.10
2022-12-08T07:23:57.350Z,13.00
2022-12-08T07:26:27.490Z,12.60
2022-12-08T07:28:55.853Z,11.70
2022-12-08T07:31:25.918Z,13.70
2022-12-08T07:33:56.834Z,11.40
2022-12-08T07:36:27.660Z,13.30
2022-12-08T07:38:56.995Z,13.40
2022-12-08T07:41:26.852Z,13.70
2022-12-08T07:43:56.964Z,10.90
2022-12-08T07:46:26.817Z,13.30
2022-12-08T07:48:55.694Z,10.30
2022-12-08T07:51:27.664Z,13.20
2022-12-08T07:53:55.923Z,11.00
2022-12-08T07:56:24.686Z,11.20
2022-12-08T07:58:53.740Z,10.30
2022-12-08T08:01:25.761Z,11.10
2022-12-08T08:03:57.586Z,10.40
2022-12-08T08:06:26.745Z,9.70
2022-12-08T08:08:55.836Z,9.70
2022-12-08T08:11:24.848Z,10.40
2022-12-08T08:13:54.718Z,8.70
2022-12-08T08:16:23.991Z,8.50
2022-12-08T08:18:52.729Z,9.40
2022-12-08T08:21:44.949Z,8.80
2022-12-08T08:24:10.679Z,10.00
2022-12-08T08:26:39.020Z,9.90
2022-12-08T08:29:07.458Z,10.10
2022-12-08T08:31:36.109Z,7.90
2022-12-08T08:34:06.668Z,9.40
2022-12-08T08:36:35.752Z,10.80
2022-12-08T08:39:04.761Z,6.90
2022-12-08T08:41:33.531Z,7.40
2022-12-08T08:44:02.125Z,7.50
2022-12-08T08:46:30.842Z,5.40
2022-12-08T08:48:59.387Z,11.00
2022-12-08T08:51:29.370Z,9.20
2022-12-08T08:53:58.404Z,10.20
2022-12-08T08:56:27.082Z,9.40
2022-12-08T08:58:55.768Z,9.60
2022-12-08T09:01:27.576Z,9.40
2022-12-08T09:03:56.911Z,10.50
2022-12-08T09:06:26.211Z,8.20
2022-12-08T09:08:54.822Z,5.80
2022-12-08T09:11:26.259Z,9.10
2022-12-08T09:13:55.556Z,11.50
2022-12-08T09:16:24.617Z,6.60
2022-12-08T09:18:53.476Z,9.20
2022-12-08T09:21:26.654Z,9.40
2022-12-08T09:23:57.644Z,9.70
2022-12-08T09:26:27.687Z,5.70
2022-12-08T09:28:58.884Z,9.90
2022-12-08T09:31:28.311Z,7.10
2022-12-08T09:33:56.826Z,9.90
2022-12-08T09:36:25.811Z,8.50
2022-12-08T09:38:54.913Z,9.30
2022-12-08T09:41:37.574Z,8.70
2022-12-08T09:44:27.443Z,9.30
2022-12-08T09:46:56.671Z,7.90
2022-12-08T09:49:40.046Z,7.80
2022-12-08T09:52:25.782Z,7.90
2022-12-08T09:55:00.769Z,10.40
2022-12-08T09:57:32.459Z,8.60
2022-12-08T10:00:07.393Z,7.70
2022-12-08T10:02:37.649Z,7.70
2022-12-08T10:05:10.871Z,7.40
2022-12-08T10:12:06.219Z,7.30
2022-12-08T10:16:01.197Z,8.30
2022-12-08T10:22:46.479Z,8.20
2022-12-08T10:25:48.862Z,6.40
2022-12-08T10:32:47.002Z,7.30
2022-12-08T10:35:25.790Z,7.30
2022-12-08T10:38:01.168Z,6.60
2022-12-08T10:40:45.352Z,8.30
2022-12-08T10:43:26.601Z,8.50
2022-12-08T10:45:55.824Z,10.40
2022-12-08T10:48:33.957Z,9.20
2022-12-08T10:51:05.763Z,5.60
2022-12-08T10:53:46.013Z,8.30
2022-12-08T10:56:18.290Z,8.50
2022-12-08T10:58:48.318Z,7.50
2022-12-08T11:01:28.275Z,7.30
2022-12-08T11:04:03.109Z,11.00
2022-12-08T11:06:36.144Z,6.30
2022-12-08T11:09:49.229Z,7.00
2022-12-08T11:12:20.920Z,9.00
2022-12-08T11:15:17.537Z,7.70
2022-12-08T11:17:52.211Z,8.90
2022-12-08T11:20:25.823Z,6.40
2022-12-08T11:22:56.699Z,7.20
2022-12-08T11:25:28.446Z,10.00
2022-12-08T11:27:59.804Z,7.30
2022-12-08T11:30:33.692Z,7.30
2022-12-08T11:33:14.531Z,10.00
2022-12-08T11:35:47.766Z,9.50
2022-12-08T11:38:24.092Z,8.20
2022-12-08T11:41:10.929Z,10.30
2022-12-08T11:44:08.336Z,10.60
2022-12-08T11:46:57.784Z,9.40
2022-12-08T11:49:35.174Z,10.00
2022-12-08T11:52:21.762Z,9.80
2022-12-08T11:55:40.642Z,9.20
2022-12-08T11:58:20.546Z,10.70
2022-12-08T12:00:50.067Z,10.70
2022-12-08T12:03:34.911Z,11.70
2022-12-08T12:09:03.286Z,10.30
2022-12-08T12:12:09.867Z,11.20
2022-12-08T12:15:13.002Z,8.70
2022-12-08T12:17:55.855Z,8.20
2022-12-08T12:20:33.055Z,8.40
2022-12-08T12:23:06.403Z,9.90
2022-12-08T12:25:37.192Z,11.00
2022-12-08T12:28:09.634Z,10.00
2022-12-08T12:31:07.145Z,10.10
2022-12-08T12:33:37.137Z,9.80
2022-12-08T12:36:09.673Z,11.20
2022-12-08T12:39:06.340Z,9.50
2022-12-08T12:41:46.874Z,7.70
2022-12-08T12:44:15.049Z,9.90
2022-12-08T12:46:50.403Z,9.70
2022-12-08T12:49:40.701Z,8.60
2022-12-08T12:52:24.323Z,8.60
2022-12-08T12:54:53.020Z,9.30
2022-12-08T12:57:21.488Z,7.60
2022-12-08T12:59:55.516Z,9.60
2022-12-08T13:02:36.623Z,9.50
2022-12-08T13:05:29.129Z,9.00
2022-12-08T13:08:27.133Z,8.50
2022-12-08T13:11:10.723Z,8.10
2022-12-08T13:13:55.808Z,7.00
2022-12-08T13:16:28.467Z,8.20
2022-12-08T13:19:02.516Z,10.20
2022-12-08T13:21:37.304Z,10.60
2022-12-08T13:24:14.700Z,10.20
2022-12-08T13:27:05.420Z,8.20
2022-12-08T13:29:35.829Z,9.00
2022-12-08T13:32:25.011Z,8.60
2022-12-08T13:35:01.565Z,7.20
2022-12-08T13:37:52.417Z,7.20
2022-12-08T13:40:27.915Z,9.90
2022-12-08T13:43:28.263Z,7.80
2022-12-08T13:50:32.410Z,7.50
2022-12-08T13:56:05.479Z,6.90
2022-12-08T13:57:33.189Z,9.90
2022-12-08T14:00:20.744Z,9.10
2022-12-08T14:02:53.058Z,7.80
2022-12-08T14:05:41.164Z,9.00
2022-12-08T14:08:57.122Z,9.30
2022-12-08T14:11:34.936Z,10.70
2022-12-08T14:14:06.192Z,10.50
2022-12-08T14:16:43.201Z,11.00
2022-12-08T14:19:20.661Z,11.50
2022-12-08T14:21:57.738Z,13.00
2022-12-08T14:24:28.903Z,10.20
2022-12-08T14:27:01.580Z,12.10
2022-12-08T14:29:49.002Z,10.70
2022-12-08T14:32:33.464Z,9.80
2022-12-08T14:35:07.974Z,11.60
2022-12-08T14:37:42.450Z,11.50
2022-12-08T14:40:23.074Z,9.60
2022-12-08T14:42:53.803Z,10.90
2022-12-08T14:45:22.278Z,11.40
2022-12-08T14:47:52.440Z,14.40
2022-12-08T14:50:35.676Z,15.10
2022-12-08T14:53:05.230Z,11.60
2022-12-08T14:55:38.208Z,12.90
2022-12-08T14:58:06.894Z,15.70
2022-12-08T15:00:35.515Z,13.70
2022-12-08T15:03:08.068Z,13.10
2022-12-08T15:05:36.808Z,14.60
2022-12-08T15:08:07.417Z,12.80
2022-12-08T15:10:40.476Z,9.90
2022-12-08T15:13:09.055Z,12.50
2022-12-08T15:15:57.476Z,14.70
2022-12-08T15:18:35.432Z,14.30
2022-12-08T15:21:09.240Z,15.40
2022-12-08T15:23:46.332Z,13.90
2022-12-08T15:26:23.749Z,13.20
2022-12-08T15:28:53.405Z,13.60
2022-12-08T15:31:22.045Z,13.80
2022-12-08T15:33:50.566Z,18.90
2022-12-08T15:36:19.149Z,23.30
2022-12-08T15:38:49.724Z,24.40
2022-12-08T15:41:18.362Z,24.50
2022-12-08T15:43:47.059Z,18.40
2022-12-08T15:46:15.786Z,20.70
2022-12-08T15:48:44.624Z,20.30
2022-12-08T15:51:12.931Z,24.10
2022-12-08T15:53:42.968Z,22.90
2022-12-08T15:56:29.591Z,19.90
2022-12-08T15:58:58.685Z,27.50
2022-12-08T16:01:27.905Z,28.40
2022-12-08T16:04:27.884Z,30.70
2022-12-08T16:07:20.148Z,31.70
2022-12-08T16:09:42.231Z,45.90
2022-12-08T16:13:34.042Z,38.50
2022-12-08T16:15:52.972Z,26.40
2022-12-08T16:18:29.123Z,25.80
2022-12-08T16:21:10.333Z,23.40
2022-12-08T16:23:46.029Z,23.40
2022-12-08T16:26:35.761Z,24.60
2022-12-08T16:29:06.368Z,21.40
2022-12-08T16:31:35.178Z,24.30
2022-12-08T16:34:03.888Z,25.00
2022-12-08T16:36:32.884Z,24.90
2022-12-08T16:39:01.670Z,22.10
2022-12-08T16:41:48.746Z,20.50
2022-12-08T16:44:17.975Z,22.70
2022-12-08T16:46:46.670Z,21.00
2022-12-08T16:49:15.867Z,21.00
2022-12-08T16:51:44.839Z,20.30
2022-12-08T16:54:14.237Z,23.30
2022-12-08T16:56:43.359Z,25.80
2022-12-08T16:59:13.388Z,25.70
2022-12-08T17:01:43.052Z,24.30
2022-12-08T17:07:03.357Z,17.40
2022-12-08T17:09:32.554Z,21.60
2022-12-08T17:12:04.050Z,20.10
2022-12-08T17:14:35.010Z,23.40
2022-12-08T17:17:04.274Z,24.90
2022-12-08T17:19:34.000Z,21.80
2022-12-08T17:22:13.263Z,21.10
2022-12-08T17:24:54.837Z,20.70
2022-12-08T17:27:23.540Z,19.90
2022-12-08T17:29:52.501Z,22.50
2022-12-08T17:32:22.183Z,23.20
2022-12-08T17:34:51.152Z,20.70
2022-12-08T17:37:20.860Z,21.40
2022-12-08T17:39:49.894Z,23.20
2022-12-08T17:42:19.102Z,20.50
2022-12-08T17:44:48.104Z,24.90
2022-12-08T17:47:16.558Z,21.10
2022-12-08T17:49:46.489Z,24.40
2022-12-08T17:52:15.000Z,24.40
2022-12-08T17:54:44.176Z,25.80
2022-12-08T17:57:13.986Z,24.00
2022-12-08T17:59:42.665Z,23.10
2022-12-08T18:02:12.894Z,23.40
2022-12-08T18:04:43.642Z,23.80
2022-12-08T18:07:13.121Z,21.70
2022-12-08T18:09:42.735Z,24.20
2022-12-08T18:12:11.738Z,18.70
2022-12-08T18:14:40.524Z,25.50
2022-12-08T18:17:09.555Z,23.90
2022-12-08T18:19:38.825Z,24.50
2022-12-08T18:22:07.911Z,25.30
2022-12-08T18:24:38.610Z,15.50
2022-12-08T18:27:09.325Z,24.40
2022-12-08T18:29:38.876Z,21.80
2022-12-08T18:32:08.684Z,20.50
2022-12-08T18:34:37.727Z,26.00
2022-12-08T18:37:09.065Z,24.90
2022-12-08T18:39:38.324Z,24.40
2022-12-08T18:42:29.592Z,25.70
2022-12-08T18:45:04.695Z,22.80
2022-12-08T18:47:37.725Z,22.50
2022-12-08T18:50:09.167Z,27.40
2022-12-08T18:52:38.639Z,27.30
2022-12-08T18:55:09.974Z,26.00
2022-12-08T18:57:42.821Z,23.90
2022-12-08T19:00:15.265Z,22.80
2022-12-08T19:02:45.448Z,24.50
2022-12-08T19:05:15.262Z,25.70
2022-12-08T19:07:45.942Z,24.00
2022-12-08T19:10:15.995Z,24.20
2022-12-08T19:12:46.114Z,27.30
2022-12-08T19:15:16.335Z,24.20
2022-12-08T19:17:46.281Z,25.30
2022-12-08T19:20:15.803Z,25.80
2022-12-08T19:22:45.896Z,24.10
2022-12-08T19:25:15.040Z,23.40
2022-12-08T19:27:44.460Z,23.00
2022-12-08T19:30:14.184Z,23.90
2022-12-08T19:32:42.712Z,22.30
2022-12-08T19:35:11.985Z,21.10
2022-12-08T19:37:41.763Z,23.80
2022-12-08T19:40:32.857Z,21.60
2022-12-08T19:43:21.179Z,23.50
2022-12-08T19:45:50.756Z,20.70
2022-12-08T19:48:19.657Z,21.00
2022-12-08T19:50:48.681Z,19.10
2022-12-08T19:53:18.167Z,19.20
2022-12-08T19:55:48.081Z,22.90
2022-12-08T19:58:18.320Z,22.00
2022-12-08T20:00:48.530Z,21.80
2022-12-08T20:03:19.528Z,18.80
2022-12-08T20:05:50.868Z,25.20
2022-12-08T20:08:20.707Z,22.90
2022-12-08T20:10:51.178Z,19.90
2022-12-08T20:13:39.068Z,20.70
2022-12-08T20:16:09.114Z,20.80
2022-12-08T20:18:40.272Z,27.90
2022-12-08T20:21:10.182Z,21.50
2022-12-08T20:23:39.564Z,22.10
2022-12-08T20:26:12.684Z,23.20
2022-12-08T20:28:41.580Z,30.70
2022-12-08T20:31:26.426Z,21.10
2022-12-08T20:33:55.835Z,32.30
2022-12-08T20:36:25.224Z,51.20
2022-12-08T20:38:55.448Z,90.30
2022-12-08T20:41:25.068Z,77.90
2022-12-08T20:43:54.365Z,54.90
2022-12-08T20:46:24.331Z,64.00
2022-12-08T20:48:53.917Z,88.00
2022-12-08T20:51:25.743Z,70.60
2022-12-08T20:54:00.326Z,53.30
2022-12-08T20:56:29.114Z,77.00
2022-12-08T20:58:58.964Z,66.90
2022-12-08T21:01:28.570Z,56.30
2022-12-08T21:03:57.977Z,41.60
2022-12-08T21:06:28.094Z,27.90
2022-12-08T21:08:56.985Z,27.50
2022-12-08T21:11:25.978Z,28.00
2022-12-08T21:13:56.713Z,30.90
2022-12-08T21:16:27.933Z,32.10
2022-12-08T21:19:00.031Z,39.80
2022-12-08T21:21:29.463Z,54.60
2022-12-08T21:23:59.765Z,25.20
2022-12-08T21:26:29.437Z,47.50
2022-12-08T21:28:59.696Z,40.90
2022-12-08T21:31:32.735Z,32.00
2022-12-08T21:34:03.484Z,26.80
2022-12-08T21:36:33.416Z,28.60
2022-12-08T21:39:02.985Z,25.80
2022-12-08T21:41:51.636Z,27.30
2022-12-08T21:44:21.296Z,35.10
2022-12-08T21:46:52.178Z,62.30
2022-12-08T21:49:21.422Z,67.50
2022-12-08T21:51:50.082Z,48.40
2022-12-08T21:54:19.765Z,37.10
2022-12-08T21:56:51.073Z,27.80
2022-12-08T21:59:21.596Z,25.90
2022-12-08T22:01:51.103Z,37.60
2022-12-08T22:04:25.034Z,48.60
2022-12-08T22:06:54.207Z,44.40
2022-12-08T22:09:23.945Z,38.40
2022-12-08T22:11:53.372Z,29.30
2022-12-08T22:14:23.135Z,29.30
2022-12-08T22:16:52.013Z,54.90
2022-12-08T22:19:21.528Z,49.10
2022-12-08T22:21:51.011Z,32.80
2022-12-08T22:24:19.835Z,27.00
2022-12-08T22:26:49.881Z,38.80
2022-12-08T22:29:20.393Z,39.90
2022-12-08T22:31:49.220Z,49.50
2022-12-08T22:34:19.751Z,42.30
2022-12-08T22:36:49.232Z,42.20
2022-12-08T22:39:18.432Z,38.90
2022-12-08T22:41:47.184Z,43.70
2022-12-08T22:44:16.926Z,29.90
2022-12-08T22:46:46.634Z,29.40
2022-12-08T22:49:15.492Z,27.70
2022-12-08T22:51:44.057Z,29.00
2022-12-08T22:54:13.001Z,30.30
2022-12-08T22:56:41.955Z,25.30
2022-12-08T22:59:10.291Z,27.70
2022-12-08T23:01:38.716Z,29.60
2022-12-08T23:04:09.195Z,27.50
2022-12-08T23:06:41.419Z,26.70
2022-12-08T23:09:10.000Z,24.20
2022-12-08T23:11:38.470Z,25.80
2022-12-08T23:14:06.960Z,28.60
2022-12-08T23:16:35.380Z,27.50
2022-12-08T23:19:04.207Z,27.50
2022-12-08T23:21:32.778Z,26.90
2022-12-08T23:24:02.545Z,27.80
2022-12-08T23:26:33.126Z,28.00
2022-12-08T23:29:01.835Z,25.20
2022-12-08T23:31:30.900Z,24.00
2022-12-08T23:33:59.518Z,24.90
2022-12-08T23:36:28.092Z,23.60
2022-12-08T23:38:56.988Z,24.80
2022-12-08T23:41:25.482Z,26.10
2022-12-08T23:43:53.763Z,25.00
2022-12-08T23:46:23.558Z,23.50
2022-12-08T23:48:52.203Z,21.20
2022-12-08T23:51:20.722Z,17.40
2022-12-08T23:53:49.888Z,21.00
2022-12-08T23:56:19.280Z,20.30
2022-12-08T23:58:47.761Z,21.50
